createdAt,value
2023-08-26T00:00:23.409Z,5.38
2023-08-26T00:02:50.935Z,6.38
2023-08-26T00:05:18.385Z,5.65
2023-08-26T00:07:45.821Z,6.05
2023-08-26T00:10:13.341Z,4.53
2023-08-26T00:12:40.800Z,5.18
2023-08-26T00:15:08.446Z,7.72
2023-08-26T00:17:36.099Z,6.82
2023-08-26T00:20:07.039Z,5.65
2023-08-26T00:22:34.499Z,4.93
2023-08-26T00:25:02.007Z,5.63
2023-08-26T00:27:30.026Z,5.15
2023-08-26T00:29:57.551Z,5.53
2023-08-26T00:32:25.126Z,7.75
2023-08-26T00:34:52.611Z,6.53
2023-08-26T00:37:20.092Z,5.20
2023-08-26T00:39:47.517Z,6.95
2023-08-26T00:42:15.001Z,5.88
2023-08-26T00:44:42.470Z,7.07
2023-08-26T00:47:10.092Z,5.25
2023-08-26T00:49:37.792Z,6.72
2023-08-26T00:52:05.889Z,4.80
2023-08-26T00:54:37.413Z,7.00
2023-08-26T00:57:09.024Z,7.13
2023-08-26T00:59:36.885Z,5.95
2023-08-26T01:02:04.432Z,6.28
2023-08-26T01:04:32.183Z,4.85
2023-08-26T01:07:00.262Z,6.32
2023-08-26T01:09:27.760Z,4.95
2023-08-26T01:11:59.986Z,6.63
2023-08-26T01:14:34.091Z,6.97
2023-08-26T01:17:01.749Z,5.88
2023-08-26T01:19:39.652Z,5.47
2023-08-26T01:22:08.152Z,5.03
2023-08-26T01:24:36.321Z,5.60
2023-08-26T01:27:04.215Z,8.63
2023-08-26T01:29:31.843Z,5.53
2023-08-26T01:32:05.432Z,6.55
2023-08-26T01:34:35.046Z,5.13
2023-08-26T01:37:04.063Z,5.60
2023-08-26T01:39:31.705Z,5.40
2023-08-26T01:41:59.869Z,5.55
2023-08-26T01:44:27.509Z,7.40
2023-08-26T01:46:56.258Z,5.65
2023-08-26T01:49:24.837Z,5.00
2023-08-26T01:51:52.322Z,4.95
2023-08-26T01:54:19.773Z,7.55
2023-08-26T01:56:47.241Z,5.97
2023-08-26T01:59:14.769Z,5.45
2023-08-26T02:01:42.309Z,4.57
2023-08-26T02:04:09.760Z,4.35
2023-08-26T02:06:39.698Z,5.80
2023-08-26T02:09:07.141Z,6.10
2023-08-26T02:11:34.638Z,6.20
2023-08-26T02:14:02.067Z,6.70
2023-08-26T02:16:29.581Z,4.75
2023-08-26T02:18:57.059Z,5.07
2023-08-26T02:21:24.482Z,7.45
2023-08-26T02:23:51.921Z,5.45
2023-08-26T02:26:19.373Z,5.47
2023-08-26T02:28:46.810Z,10.70
2023-08-26T02:31:14.302Z,6.35
2023-08-26T02:33:41.831Z,6.78
2023-08-26T02:36:09.286Z,5.25
2023-08-26T02:38:36.810Z,5.50
2023-08-26T02:41:04.240Z,6.10
2023-08-26T02:43:31.731Z,4.85
2023-08-26T02:45:59.889Z,5.88
2023-08-26T02:48:27.857Z,6.85
2023-08-26T02:51:02.586Z,5.78
2023-08-26T02:53:30.653Z,6.00
2023-08-26T02:55:58.104Z,5.20
2023-08-26T02:58:25.676Z,7.45
2023-08-26T03:00:53.553Z,5.78
2023-08-26T03:03:22.363Z,6.57
2023-08-26T03:05:50.002Z,6.35
2023-08-26T03:08:17.422Z,7.00
2023-08-26T03:10:44.855Z,7.95
2023-08-26T03:13:12.370Z,7.57
2023-08-26T03:15:39.814Z,5.28
2023-08-26T03:18:07.331Z,5.72
2023-08-26T03:20:37.303Z,8.75
2023-08-26T03:23:04.773Z,7.00
2023-08-26T03:25:32.177Z,6.70
2023-08-26T03:27:59.645Z,7.50
2023-08-26T03:30:27.125Z,6.55
2023-08-26T03:32:54.612Z,9.13
2023-08-26T03:35:22.180Z,6.88
2023-08-26T03:37:49.604Z,4.85
2023-08-26T03:40:17.263Z,8.25
2023-08-26T03:42:44.688Z,5.45
2023-08-26T03:45:12.236Z,7.28
2023-08-26T03:47:39.729Z,7.28
2023-08-26T03:50:07.643Z,8.07
2023-08-26T03:52:35.113Z,10.48
2023-08-26T03:55:03.481Z,6.68
2023-08-26T03:57:30.946Z,8.35
2023-08-26T03:59:59.383Z,8.07
2023-08-26T04:02:27.125Z,10.95
2023-08-26T04:04:54.525Z,9.00
2023-08-26T04:07:21.947Z,9.68
2023-08-26T04:09:49.403Z,7.55
2023-08-26T04:12:16.823Z,7.20
2023-08-26T04:14:44.328Z,8.57
2023-08-26T04:17:13.455Z,6.80
2023-08-26T04:19:40.893Z,6.78
2023-08-26T04:22:08.754Z,8.05
2023-08-26T04:24:36.197Z,7.35
2023-08-26T04:27:03.651Z,7.10
2023-08-26T04:29:31.137Z,6.82
2023-08-26T04:31:58.585Z,8.05
2023-08-26T04:34:27.328Z,9.27
2023-08-26T04:36:54.822Z,6.38
2023-08-26T04:39:23.636Z,6.25
2023-08-26T04:41:51.052Z,7.72
2023-08-26T04:44:19.025Z,7.15
2023-08-26T04:46:46.562Z,6.85
2023-08-26T04:49:14.007Z,7.75
2023-08-26T04:51:41.500Z,5.65
2023-08-26T04:54:08.896Z,7.05
2023-08-26T04:56:36.546Z,8.57
2023-08-26T04:59:04.392Z,6.85
2023-08-26T05:01:32.296Z,6.63
2023-08-26T05:03:59.725Z,8.40
2023-08-26T05:06:27.188Z,6.57
2023-08-26T05:08:54.644Z,8.18
2023-08-26T05:11:22.074Z,8.77
2023-08-26T05:13:49.616Z,6.38
2023-08-26T05:16:17.024Z,8.63
2023-08-26T05:18:44.696Z,8.88
2023-08-26T05:21:12.478Z,8.10
2023-08-26T05:23:39.881Z,9.75
2023-08-26T05:26:07.336Z,7.65
2023-08-26T05:28:34.857Z,7.63
2023-08-26T05:31:02.364Z,14.63
2023-08-26T05:33:38.182Z,18.73
2023-08-26T05:36:05.988Z,9.38
2023-08-26T05:38:33.464Z,7.10
2023-08-26T05:41:00.981Z,5.90
2023-08-26T05:43:31.407Z,7.53
2023-08-26T05:45:59.053Z,10.23
2023-08-26T05:48:26.502Z,7.70
2023-08-26T05:50:53.972Z,8.10
2023-08-26T05:53:21.418Z,8.82
2023-08-26T05:55:49.235Z,8.60
2023-08-26T05:58:16.733Z,8.93
2023-08-26T06:00:44.277Z,6.45
2023-08-26T06:03:11.723Z,8.93
2023-08-26T06:05:39.181Z,7.35
2023-08-26T06:08:07.968Z,8.85
2023-08-26T06:10:35.525Z,5.82
2023-08-26T06:13:02.993Z,8.20
2023-08-26T06:15:30.425Z,6.47
2023-08-26T06:17:58.134Z,8.77
2023-08-26T06:20:27.318Z,8.25
2023-08-26T06:22:54.932Z,6.47
2023-08-26T06:25:22.491Z,6.20
2023-08-26T06:27:49.972Z,7.25
2023-08-26T06:30:17.493Z,7.72
2023-08-26T06:32:45.849Z,7.85
2023-08-26T06:35:13.416Z,6.57
2023-08-26T06:37:41.480Z,9.30
2023-08-26T06:40:09.338Z,7.97
2023-08-26T06:42:36.786Z,8.80
2023-08-26T06:45:04.299Z,8.38
2023-08-26T06:47:32.304Z,8.23
2023-08-26T06:49:59.765Z,7.75
2023-08-26T06:52:29.096Z,10.25
2023-08-26T06:54:56.568Z,9.27
2023-08-26T06:57:24.022Z,10.95
2023-08-26T06:59:51.586Z,11.77
2023-08-26T07:02:19.146Z,10.23
2023-08-26T07:04:46.598Z,8.27
2023-08-26T07:07:15.118Z,10.85
2023-08-26T07:09:43.784Z,8.65
2023-08-26T07:12:11.227Z,16.67
2023-08-26T07:14:38.729Z,9.18
2023-08-26T07:17:06.253Z,14.43
2023-08-26T07:19:33.748Z,20.40
2023-08-26T07:22:01.256Z,11.77
2023-08-26T07:24:30.167Z,9.63
2023-08-26T07:26:57.647Z,10.07
2023-08-26T07:29:25.357Z,9.80
2023-08-26T07:31:52.833Z,11.98
2023-08-26T07:34:20.246Z,20.33
2023-08-26T07:36:47.664Z,18.05
2023-08-26T07:39:15.133Z,11.55
2023-08-26T07:41:42.597Z,14.80
2023-08-26T07:44:10.074Z,11.95
2023-08-26T07:49:07.901Z,12.88
2023-08-26T07:51:35.574Z,27.65
2023-08-26T07:54:03.065Z,11.30
2023-08-26T07:56:30.612Z,59.63
2023-08-26T07:58:58.061Z,12.23
2023-08-26T08:01:25.531Z,13.40
2023-08-26T08:03:53.120Z,22.25
2023-08-26T08:06:20.583Z,15.60
2023-08-26T08:08:48.025Z,11.73
2023-08-26T08:11:15.481Z,18.10
2023-08-26T08:13:42.897Z,12.52
2023-08-26T08:16:10.478Z,12.52
2023-08-26T08:18:39.078Z,19.83
2023-08-26T08:21:07.145Z,10.63
2023-08-26T08:23:34.653Z,17.38
2023-08-26T08:26:02.093Z,13.75
2023-08-26T08:28:29.611Z,14.63
2023-08-26T08:30:58.096Z,14.93
2023-08-26T08:33:25.835Z,12.85
2023-08-26T08:35:53.287Z,12.52
2023-08-26T08:38:20.759Z,14.48
2023-08-26T08:40:48.323Z,13.63
2023-08-26T08:43:17.868Z,13.80
2023-08-26T08:45:45.301Z,14.70
2023-08-26T08:48:12.773Z,14.25
2023-08-26T08:50:40.651Z,12.13
2023-08-26T08:53:09.514Z,13.38
2023-08-26T08:55:36.945Z,15.32
2023-08-26T08:58:04.455Z,15.43
2023-08-26T09:00:32.063Z,14.30
2023-08-26T09:03:02.024Z,14.05
2023-08-26T09:05:29.662Z,11.32
2023-08-26T09:07:58.166Z,10.48
2023-08-26T09:10:26.891Z,12.38
2023-08-26T09:12:54.412Z,11.23
2023-08-26T09:15:22.873Z,10.75
2023-08-26T09:17:52.890Z,12.93
2023-08-26T09:22:47.826Z,14.82
2023-08-26T09:25:15.290Z,12.30
2023-08-26T09:27:44.177Z,12.63
2023-08-26T09:30:11.942Z,19.45
2023-08-26T09:32:44.573Z,9.60
2023-08-26T09:35:13.282Z,11.45
2023-08-26T09:37:41.972Z,12.32
2023-08-26T09:40:13.656Z,10.98
2023-08-26T09:42:42.055Z,12.50
2023-08-26T09:45:12.821Z,10.38
2023-08-26T09:47:40.479Z,10.73
2023-08-26T09:50:08.603Z,10.32
2023-08-26T09:52:56.295Z,8.80
2023-08-26T09:55:23.993Z,9.27
2023-08-26T09:57:54.236Z,9.45
2023-08-26T10:00:22.608Z,11.35
2023-08-26T10:02:51.314Z,11.63
2023-08-26T10:05:20.736Z,9.73
2023-08-26T10:07:54.678Z,7.93
2023-08-26T10:10:49.345Z,10.75
2023-08-26T10:13:17.823Z,9.80
2023-08-26T10:15:45.451Z,8.55
2023-08-26T10:18:22.798Z,9.07
2023-08-26T10:20:50.562Z,9.13
2023-08-26T10:23:18.426Z,8.30
2023-08-26T10:25:47.168Z,9.43
2023-08-26T10:28:14.842Z,8.05
2023-08-26T10:30:42.427Z,7.88
2023-08-26T10:33:09.993Z,8.02
2023-08-26T10:35:41.163Z,9.65
2023-08-26T10:38:12.322Z,9.35
2023-08-26T10:40:39.947Z,11.68
2023-08-26T10:43:08.437Z,7.47
2023-08-26T10:45:45.505Z,8.30
2023-08-26T10:48:12.984Z,6.88
2023-08-26T10:50:42.122Z,8.07
2023-08-26T10:53:22.970Z,6.75
2023-08-26T10:55:53.675Z,8.40
2023-08-26T10:58:25.424Z,7.88
2023-08-26T11:00:53.924Z,7.18
2023-08-26T11:03:22.255Z,7.45
2023-08-26T11:06:02.653Z,7.70
2023-08-26T11:08:30.225Z,10.35
2023-08-26T11:10:57.702Z,8.25
2023-08-26T11:13:25.120Z,6.55
2023-08-26T11:15:53.107Z,7.45
2023-08-26T11:18:22.102Z,7.00
2023-08-26T11:20:50.604Z,9.10
2023-08-26T11:23:18.049Z,7.93
2023-08-26T11:25:45.715Z,8.77
2023-08-26T11:28:14.257Z,9.07
2023-08-26T11:30:42.918Z,8.57
2023-08-26T11:33:16.623Z,6.80
2023-08-26T11:35:58.705Z,8.32
2023-08-26T11:38:35.928Z,7.13
2023-08-26T11:41:10.064Z,7.35
2023-08-26T11:43:38.282Z,8.60
2023-08-26T11:46:07.076Z,11.85
2023-08-26T11:48:38.834Z,7.45
2023-08-26T11:51:06.779Z,12.15
2023-08-26T11:53:36.902Z,8.60
2023-08-26T11:58:33.425Z,14.20
2023-08-26T12:01:01.038Z,13.00
2023-08-26T12:03:31.787Z,10.25
2023-08-26T12:05:59.352Z,8.52
2023-08-26T12:08:26.834Z,9.07
2023-08-26T12:10:55.107Z,8.63
2023-08-26T12:13:22.523Z,9.68
2023-08-26T12:15:51.940Z,10.88
2023-08-26T12:18:21.298Z,10.50
2023-08-26T12:20:50.175Z,7.85
2023-08-26T12:23:20.522Z,8.52
2023-08-26T12:25:48.106Z,9.65
2023-08-26T12:28:16.584Z,10.00
2023-08-26T12:30:45.237Z,9.60
2023-08-26T12:33:23.537Z,9.60
2023-08-26T12:35:53.874Z,11.65
2023-08-26T12:38:21.706Z,9.02
2023-08-26T12:40:50.484Z,9.02
2023-08-26T12:43:20.468Z,9.95
2023-08-26T12:45:50.070Z,11.18
2023-08-26T12:48:31.093Z,9.45
2023-08-26T12:51:01.367Z,8.90
2023-08-26T12:53:28.782Z,11.80
2023-08-26T12:55:56.277Z,12.07
2023-08-26T12:58:26.413Z,10.15
2023-08-26T13:03:21.389Z,9.73
2023-08-26T13:05:50.249Z,9.70
2023-08-26T13:08:17.686Z,11.18
2023-08-26T13:10:45.482Z,14.25
2023-08-26T13:13:12.948Z,12.10
2023-08-26T13:15:42.819Z,11.00
2023-08-26T13:18:13.572Z,9.82
2023-08-26T13:20:41.294Z,11.48
2023-08-26T13:23:10.824Z,14.07
2023-08-26T13:25:41.341Z,15.45
2023-08-26T13:28:09.848Z,10.90
2023-08-26T13:30:37.358Z,14.65
2023-08-26T13:33:05.091Z,12.30
2023-08-26T13:35:32.942Z,10.25
2023-08-26T13:38:00.638Z,11.90
2023-08-26T13:40:28.316Z,11.45
2023-08-26T13:42:57.054Z,10.30
2023-08-26T13:45:24.735Z,10.18
2023-08-26T13:47:53.466Z,12.48
2023-08-26T13:50:21.020Z,11.82
2023-08-26T13:52:49.753Z,11.85
2023-08-26T13:57:45.956Z,11.23
2023-08-26T14:00:15.333Z,11.18
2023-08-26T14:02:45.822Z,11.00
2023-08-26T14:05:13.343Z,10.60
2023-08-26T14:07:43.953Z,11.18
2023-08-26T14:10:11.736Z,9.68
2023-08-26T14:12:42.090Z,9.45
2023-08-26T14:15:10.258Z,10.80
2023-08-26T14:17:38.479Z,10.32
2023-08-26T14:20:06.320Z,9.27
2023-08-26T14:22:33.788Z,9.57
2023-08-26T14:25:03.046Z,10.55
2023-08-26T14:27:30.613Z,11.38
2023-08-26T14:29:58.109Z,9.05
2023-08-26T14:32:25.567Z,10.68
2023-08-26T14:34:53.217Z,11.93
2023-08-26T14:37:20.737Z,11.00
2023-08-26T14:39:48.173Z,15.00
2023-08-26T14:42:15.676Z,11.60
2023-08-26T14:44:43.160Z,11.70
2023-08-26T14:47:10.666Z,14.88
2023-08-26T14:49:38.154Z,13.15
2023-08-26T14:52:05.906Z,12.73
2023-08-26T14:54:33.400Z,12.85
2023-08-26T14:57:02.340Z,12.10
2023-08-26T14:59:30.053Z,12.15
2023-08-26T15:02:00.149Z,14.23
2023-08-26T15:04:27.820Z,12.80
2023-08-26T15:06:56.018Z,15.20
2023-08-26T15:09:23.510Z,14.18
2023-08-26T15:11:51.680Z,25.42
2023-08-26T15:14:21.071Z,21.05
2023-08-26T15:16:49.826Z,13.27
2023-08-26T15:19:17.582Z,12.48
2023-08-26T15:21:45.124Z,13.32
2023-08-26T15:24:12.650Z,15.77
2023-08-26T15:26:40.190Z,14.95
2023-08-26T15:29:08.219Z,12.73
2023-08-26T15:31:35.656Z,13.23
2023-08-26T15:34:04.417Z,11.07
2023-08-26T15:36:31.902Z,12.77
2023-08-26T15:38:59.442Z,12.45
2023-08-26T15:41:26.871Z,12.18
2023-08-26T15:43:54.332Z,13.50
2023-08-26T15:46:21.863Z,12.65
2023-08-26T15:48:49.354Z,17.17
2023-08-26T15:51:16.820Z,19.65
2023-08-26T15:53:44.286Z,32.58
2023-08-26T15:56:11.897Z,22.60
2023-08-26T15:58:39.402Z,16.90
2023-08-26T16:01:07.014Z,17.10
2023-08-26T16:03:34.528Z,12.70
2023-08-26T16:06:02.003Z,30.02
2023-08-26T16:08:29.431Z,32.15
2023-08-26T16:10:56.885Z,21.88
2023-08-26T16:13:24.490Z,21.65
2023-08-26T16:15:51.959Z,15.75
2023-08-26T16:18:19.453Z,21.35
2023-08-26T16:20:47.018Z,16.45
2023-08-26T16:23:14.439Z,16.27
2023-08-26T16:25:41.906Z,14.65
2023-08-26T16:28:09.350Z,13.52
2023-08-26T16:30:37.153Z,15.13
2023-08-26T16:33:05.331Z,14.23
2023-08-26T16:35:32.807Z,12.50
2023-08-26T16:38:01.852Z,14.05
2023-08-26T16:40:32.861Z,11.77
2023-08-26T16:43:00.576Z,14.90
2023-08-26T16:45:29.438Z,10.75
2023-08-26T16:47:56.965Z,14.93
2023-08-26T16:50:24.466Z,14.02
2023-08-26T16:52:51.950Z,15.43
2023-08-26T16:55:19.392Z,12.30
2023-08-26T16:57:46.855Z,12.07
2023-08-26T17:00:14.516Z,12.57
2023-08-26T17:02:42.025Z,12.63
2023-08-26T17:05:10.504Z,12.30
2023-08-26T17:07:38.065Z,12.70
2023-08-26T17:10:08.146Z,15.55
2023-08-26T17:15:03.523Z,12.82
2023-08-26T17:17:31.068Z,13.25
2023-08-26T17:19:58.514Z,16.70
2023-08-26T17:22:26.315Z,11.93
2023-08-26T17:24:54.012Z,13.27
2023-08-26T17:27:21.518Z,10.80
2023-08-26T17:29:48.998Z,11.52
2023-08-26T17:32:16.483Z,13.95
2023-08-26T17:34:44.080Z,14.23
2023-08-26T17:37:12.087Z,12.65
2023-08-26T17:39:42.182Z,12.80
2023-08-26T17:44:36.943Z,12.05
2023-08-26T17:47:10.014Z,13.32
2023-08-26T17:49:37.912Z,13.95
2023-08-26T17:52:05.603Z,13.52
2023-08-26T17:54:33.092Z,14.98
2023-08-26T17:57:03.513Z,12.15
2023-08-26T17:59:35.284Z,11.80
2023-08-26T18:02:06.751Z,13.25
2023-08-26T18:04:40.442Z,12.23
2023-08-26T18:07:09.328Z,12.75
2023-08-26T18:09:41.964Z,12.52
2023-08-26T18:12:15.411Z,11.23
2023-08-26T18:14:51.216Z,14.20
2023-08-26T18:17:22.544Z,13.05
2023-08-26T18:19:50.071Z,16.42
2023-08-26T18:22:17.504Z,14.70
2023-08-26T18:24:52.014Z,15.20
2023-08-26T18:27:19.658Z,12.77
2023-08-26T18:29:47.076Z,12.02
2023-08-26T18:32:16.428Z,13.05
2023-08-26T18:34:45.145Z,12.52
2023-08-26T18:37:12.691Z,14.68
2023-08-26T18:39:40.246Z,12.35
2023-08-26T18:42:09.488Z,13.48
2023-08-26T18:44:37.611Z,11.93
2023-08-26T18:47:05.267Z,14.00
2023-08-26T18:49:32.947Z,11.77
2023-08-26T18:52:00.375Z,11.00
2023-08-26T18:54:27.846Z,11.48
2023-08-26T18:56:55.537Z,11.88
2023-08-26T18:59:22.943Z,10.40
2023-08-26T19:01:50.434Z,13.43
2023-08-26T19:04:19.683Z,12.60
2023-08-26T19:06:47.555Z,12.73
2023-08-26T19:09:15.283Z,11.43
2023-08-26T19:11:42.725Z,10.13
2023-08-26T19:14:10.372Z,12.20
2023-08-26T19:16:38.207Z,13.90
2023-08-26T19:19:06.212Z,11.65
2023-08-26T19:21:33.672Z,10.25
2023-08-26T19:24:01.575Z,27.40
2023-08-26T19:26:30.093Z,23.40
2023-08-26T19:28:57.633Z,16.83
2023-08-26T19:31:25.140Z,17.50
2023-08-26T19:33:52.582Z,13.68
2023-08-26T19:36:20.210Z,14.40
2023-08-26T19:38:50.084Z,14.50
2023-08-26T19:41:19.639Z,14.52
2023-08-26T19:43:47.632Z,17.20
2023-08-26T19:46:15.351Z,19.08
2023-08-26T19:48:55.406Z,19.77
2023-08-26T19:51:24.423Z,23.42
2023-08-26T19:53:51.831Z,24.08
2023-08-26T19:56:19.295Z,26.75
2023-08-26T19:58:46.768Z,23.77
2023-08-26T20:01:15.709Z,28.25
2023-08-26T20:03:43.703Z,21.85
2023-08-26T20:06:11.365Z,29.80
2023-08-26T20:08:38.779Z,26.85
2023-08-26T20:11:06.233Z,22.42
2023-08-26T20:13:33.729Z,20.38
2023-08-26T20:16:01.403Z,18.75
2023-08-26T20:18:29.115Z,19.50
2023-08-26T20:21:00.066Z,17.20
2023-08-26T20:23:28.104Z,22.80
2023-08-26T20:25:58.893Z,14.73
2023-08-26T20:28:27.448Z,14.40
2023-08-26T20:31:01.513Z,16.70
2023-08-26T20:33:32.674Z,18.65
2023-08-26T20:36:06.787Z,16.20
2023-08-26T20:38:34.342Z,18.45
2023-08-26T20:41:02.268Z,17.63
2023-08-26T20:43:30.071Z,18.73
2023-08-26T20:45:58.359Z,16.92
2023-08-26T20:48:26.508Z,14.18
2023-08-26T20:50:54.463Z,14.65
2023-08-26T20:53:22.063Z,14.73
2023-08-26T20:55:50.141Z,13.75
2023-08-26T20:58:17.605Z,13.55
2023-08-26T21:00:45.300Z,12.75
2023-08-26T21:03:13.590Z,11.77
2023-08-26T21:05:41.134Z,11.50
2023-08-26T21:08:08.625Z,12.95
2023-08-26T21:10:36.044Z,10.38
2023-08-26T21:13:03.752Z,10.50
2023-08-26T21:15:32.945Z,10.57
2023-08-26T21:18:00.546Z,11.93
2023-08-26T21:20:28.143Z,12.60
2023-08-26T21:22:55.784Z,11.07
2023-08-26T21:25:23.454Z,11.85
2023-08-26T21:27:50.963Z,10.43
2023-08-26T21:30:18.433Z,10.82
2023-08-26T21:32:45.887Z,11.57
2023-08-26T21:35:13.718Z,13.50
2023-08-26T21:37:41.478Z,11.38
2023-08-26T21:40:09.390Z,11.93
2023-08-26T21:42:36.909Z,13.07
2023-08-26T21:45:05.593Z,12.43
2023-08-26T21:47:33.350Z,10.75
2023-08-26T21:50:01.218Z,11.77
2023-08-26T21:52:28.694Z,9.55
2023-08-26T21:54:56.597Z,9.38
2023-08-26T21:57:25.142Z,10.82
2023-08-26T21:59:52.659Z,10.27
2023-08-26T22:02:20.797Z,11.25
2023-08-26T22:04:48.467Z,9.88
2023-08-26T22:07:15.962Z,14.20
2023-08-26T22:09:46.280Z,12.82
2023-08-26T22:12:14.343Z,12.90
2023-08-26T22:14:41.768Z,11.18
2023-08-26T22:17:09.895Z,12.43
2023-08-26T22:19:37.406Z,10.48
2023-08-26T22:22:04.941Z,13.15
2023-08-26T22:24:32.436Z,10.73
2023-08-26T22:26:59.872Z,14.43
2023-08-26T22:29:27.409Z,12.00
2023-08-26T22:31:54.908Z,12.68
2023-08-26T22:34:22.624Z,11.43
2023-08-26T22:36:50.209Z,11.80
2023-08-26T22:39:20.050Z,11.30
2023-08-26T22:44:20.738Z,9.10
2023-08-26T22:46:48.276Z,10.43
2023-08-26T22:49:15.900Z,9.70
2023-08-26T22:51:43.423Z,9.68
2023-08-26T22:54:10.876Z,9.43
2023-08-26T22:56:38.303Z,9.52
2023-08-26T22:59:06.302Z,9.77
2023-08-26T23:01:33.797Z,8.73
2023-08-26T23:04:01.288Z,8.18
2023-08-26T23:06:28.719Z,8.40
2023-08-26T23:08:56.199Z,10.98
2023-08-26T23:11:23.736Z,10.25
2023-08-26T23:13:51.208Z,9.25
2023-08-26T23:16:18.685Z,10.65
2023-08-26T23:18:46.204Z,9.45
2023-08-26T23:21:13.894Z,9.13
2023-08-26T23:23:41.354Z,10.77
2023-08-26T23:26:08.836Z,12.25
2023-08-26T23:28:37.419Z,10.90
2023-08-26T23:31:11.962Z,10.95
2023-08-26T23:33:39.507Z,10.88
2023-08-26T23:36:06.944Z,9.68
2023-08-26T23:38:34.498Z,10.52
2023-08-26T23:41:05.060Z,9.27
2023-08-26T23:43:32.932Z,11.13
2023-08-26T23:46:00.784Z,12.38
2023-08-26T23:48:28.377Z,10.60
2023-08-26T23:50:56.358Z,10.52
2023-08-26T23:53:23.909Z,10.75
2023-08-26T23:55:51.386Z,10.07
2023-08-26T23:58:18.901Z,11.40
